Time;durP1;ratioP1;P1;durP2;ratioP2;P2;SDS_P1;SDS_P2;PMS_P1;PMS_P2;Temp;Humidity;BMP_temperature;BMP_pressure;BME280_temperature;BME280_humidity;BME280_pressure;Samples;Min_cycle;Max_cycle;Signal;HPM_P1;HPM_P2
2023/02/27 15:49:46;;;;;;;6.85;1.30;;;19.70;99.90;;;;;;5132472;27;20509;-45
2023/02/27 15:52:12;;;;;;;4.93;1.20;;;20.10;96.90;;;;;;5102301;28;20036;-42
2023/02/27 15:54:39;;;;;;;5.40;1.08;;;20.40;90.70;;;;;;5090973;28;20044;-41
2023/02/27 15:57:06;;;;;;;10.18;1.67;;;20.40;88.30;;;;;;5091581;28;20043;-41
2023/02/27 15:59:33;;;;;;;5.82;1.42;;;20.40;86.00;;;;;;5090234;28;20055;-40
2023/02/27 16:02:02;;;;;;;8.00;1.58;;;20.40;89.00;;;;;;5074189;28;20040;-42
2023/02/27 16:04:30;;;;;;;7.88;1.48;;;20.40;87.40;;;;;;5090234;28;20040;-41
2023/02/27 16:06:56;;;;;;;7.75;1.55;;;20.50;87.00;;;;;;5091160;28;20044;-40
2023/02/27 16:09:23;;;;;;;7.88;1.83;;;20.50;87.40;;;;;;5093239;28;20047;-41
2023/02/27 16:11:50;;;;;;;9.05;2.55;;;20.60;86.80;;;;;;5100097;28;20036;-41
2023/02/27 16:14:16;;;;;;;16.10;4.15;;;20.60;86.50;;;;;;5090568;28;20514;-41
2023/02/27 16:16:43;;;;;;;11.45;3.60;;;20.70;86.20;;;;;;5090578;28;20047;-41
2023/02/27 16:19:10;;;;;;;15.45;4.65;;;20.70;86.60;;;;;;5089596;28;20078;-41
2023/02/27 16:21:36;;;;;;;18.23;4.53;;;20.70;85.90;;;;;;5090480;28;20052;-42
2023/02/27 16:24:03;;;;;;;20.83;5.15;;;20.70;85.40;;;;;;5055629;28;20044;-41
2023/02/27 16:26:30;;;;;;;21.08;5.32;;;20.70;85.10;;;;;;5091169;28;20044;-42
2023/02/27 16:28:58;;;;;;;19.15;5.25;;;20.80;85.50;;;;;;5090920;28;20049;-41
2023/02/27 16:31:25;;;;;;;17.38;5.55;;;20.70;85.00;;;;;;5089725;28;20040;-42
2023/02/27 16:33:52;;;;;;;18.00;5.43;;;20.70;84.70;;;;;;5090884;28;20398;-41
2023/02/27 16:36:19;;;;;;;20.65;5.82;;;20.70;84.20;;;;;;5090926;28;20056;-42
2023/02/27 16:38:45;;;;;;;19.63;5.40;;;20.70;84.00;;;;;;5090075;28;20040;-42
2023/02/27 16:41:14;;;;;;;16.02;4.68;;;20.70;83.90;;;;;;5090852;28;20040;-41
2023/02/27 16:43:42;;;;;;;16.23;4.78;;;20.70;84.00;;;;;;5090298;28;20084;-40
2023/02/27 16:46:09;;;;;;;16.50;4.80;;;20.70;83.50;;;;;;5089674;28;20040;-42
2023/02/27 16:48:35;;;;;;;16.85;4.82;;;20.70;83.60;;;;;;5079700;28;20076;-41
2023/02/27 16:51:02;;;;;;;15.85;4.55;;;20.70;83.10;;;;;;5069582;28;20052;-42
2023/02/27 16:53:29;;;;;;;16.25;4.72;;;20.70;83.00;;;;;;5070039;28;20147;-41
2023/02/27 16:55:56;;;;;;;15.90;4.85;;;20.70;83.20;;;;;;5070446;28;20059;-41
2023/02/27 16:58:23;;;;;;;17.30;4.63;;;20.70;83.00;;;;;;5069298;28;20037;-41
2023/02/27 17:00:50;;;;;;;17.77;4.50;;;20.70;82.80;;;;;;5058520;28;20048;-42
2023/02/27 17:03:17;;;;;;;15.68;4.32;;;20.80;82.20;;;;;;5039508;28;20124;-42
2023/02/27 17:05:44;;;;;;;14.13;4.07;;;20.70;82.30;;;;;;5055695;28;20075;-41
2023/02/27 17:08:10;;;;;;;12.45;4.07;;;20.80;82.30;;;;;;5055931;28;20037;-41
2023/02/27 17:10:37;;;;;;;13.07;3.97;;;20.80;82.30;;;;;;5067942;28;20045;-40
2023/02/27 17:13:05;;;;;;;14.18;3.55;;;20.80;82.10;;;;;;5072384;28;20106;-41
2023/02/27 17:15:31;;;;;;;11.90;3.92;;;20.80;81.90;;;;;;5074045;28;20041;-42
2023/02/27 17:17:58;;;;;;;12.23;3.67;;;20.80;81.20;;;;;;5073789;28;20453;-41
2023/02/27 17:20:26;;;;;;;12.82;3.63;;;20.80;81.00;;;;;;5074369;28;20375;-42
2023/02/27 17:22:53;;;;;;;12.95;3.70;;;20.80;80.50;;;;;;5055381;28;20047;-41
2023/02/27 17:25:20;;;;;;;10.02;3.08;;;20.80;80.70;;;;;;5072873;28;20433;-42
2023/02/27 17:27:47;;;;;;;11.40;3.15;;;20.90;80.70;;;;;;5074306;28;20529;-41
2023/02/27 17:30:13;;;;;;;11.65;3.05;;;20.80;80.10;;;;;;5074665;28;20049;-41
2023/02/27 17:32:40;;;;;;;10.05;3.00;;;20.80;80.30;;;;;;5073410;28;20429;-41
2023/02/27 17:35:07;;;;;;;10.30;2.90;;;20.90;79.90;;;;;;5074242;28;20044;-40
2023/02/27 17:37:34;;;;;;;10.32;3.30;;;20.90;79.80;;;;;;5073290;28;20083;-40
2023/02/27 17:40:03;;;;;;;8.30;2.90;;;20.90;79.90;;;;;;5074354;28;20063;-40
2023/02/27 17:42:29;;;;;;;8.68;2.75;;;20.90;79.20;;;;;;5056600;28;20145;-41
2023/02/27 17:44:56;;;;;;;10.07;3.25;;;20.90;79.30;;;;;;5064234;28;20060;-40
2023/02/27 17:47:23;;;;;;;9.45;2.85;;;20.90;78.90;;;;;;5053252;28;21125;-40
2023/02/27 17:49:50;;;;;;;9.23;2.50;;;20.90;78.90;;;;;;5053290;28;20037;-40
2023/02/27 17:52:16;;;;;;;8.68;2.95;;;20.90;78.70;;;;;;5052484;28;20096;-42
2023/02/27 17:54:43;;;;;;;7.47;2.30;;;20.90;78.90;;;;;;5053304;28;20056;-43
2023/02/27 17:57:12;;;;;;;8.35;2.33;;;20.90;78.60;;;;;;5053914;28;20049;-41
2023/02/27 17:59:39;;;;;;;8.63;2.22;;;20.90;78.50;;;;;;5050764;28;20127;-43
2023/02/27 18:02:05;;;;;;;9.85;2.70;;;21.00;78.50;;;;;;5054331;28;20048;-42
2023/02/27 18:04:32;;;;;;;10.07;2.80;;;21.00;77.80;;;;;;5052384;28;20041;-43
2023/02/27 18:06:59;;;;;;;8.05;2.25;;;21.00;78.30;;;;;;5053771;28;20049;-43
2023/02/27 18:09:25;;;;;;;9.00;2.45;;;21.00;78.30;;;;;;5052924;28;20096;-39
2023/02/27 18:11:52;;;;;;;8.50;2.00;;;21.10;78.10;;;;;;5051607;28;20371;-40
2023/02/27 18:14:18;;;;;;;7.97;2.20;;;21.10;77.70;;;;;;5052933;28;20398;-39
2023/02/27 18:16:45;;;;;;;6.88;2.03;;;21.10;77.50;;;;;;5053581;28;20048;-39
2023/02/27 18:19:13;;;;;;;6.65;1.95;;;21.10;77.50;;;;;;5052646;28;20049;-40
2023/02/27 18:21:41;;;;;;;6.43;2.00;;;21.10;77.40;;;;;;5017498;28;21007;-40
2023/02/27 18:24:08;;;;;;;6.13;1.92;;;21.20;77.40;;;;;;5051585;28;20045;-40
2023/02/27 18:26:34;;;;;;;6.22;1.80;;;21.20;77.20;;;;;;5053543;28;20044;-40
2023/02/27 18:29:01;;;;;;;5.10;1.88;;;21.20;77.20;;;;;;5053159;28;20537;-40
2023/02/27 18:31:28;;;;;;;7.43;1.77;;;21.20;77.20;;;;;;5034578;28;20049;-40
2023/02/27 18:33:55;;;;;;;5.65;1.98;;;21.20;77.20;;;;;;5055366;28;20068;-42
2023/02/27 18:36:22;;;;;;;5.07;1.73;;;21.20;76.90;;;;;;5054381;28;20052;-43
2023/02/27 18:38:48;;;;;;;5.18;1.60;;;21.20;76.30;;;;;;5056484;28;20045;-43
2023/02/27 18:41:15;;;;;;;6.40;1.80;;;21.20;76.50;;;;;;5054661;28;20451;-42
2023/02/27 18:43:41;;;;;;;5.90;1.77;;;21.10;76.40;;;;;;5036630;28;20501;-40
2023/02/27 18:46:08;;;;;;;4.93;1.80;;;21.10;76.60;;;;;;5053463;28;20040;-40
2023/02/27 18:48:35;;;;;;;6.55;1.70;;;21.10;77.30;;;;;;5054400;28;20067;-40
2023/02/27 18:51:03;;;;;;;5.60;1.75;;;21.10;77.10;;;;;;5053329;28;20528;-40
2023/02/27 18:53:30;;;;;;;4.47;1.60;;;21.10;77.00;;;;;;5054390;28;20044;-40
2023/02/27 18:55:56;;;;;;;5.00;1.50;;;21.10;77.40;;;;;;5054760;28;20049;-40
2023/02/27 18:58:23;;;;;;;4.93;1.55;;;21.10;77.40;;;;;;5053397;28;20059;-40
2023/02/27 19:00:50;;;;;;;6.45;1.80;;;21.10;77.50;;;;;;5054701;28;20045;-40
2023/02/27 19:03:17;;;;;;;6.22;1.58;;;21.10;78.20;;;;;;5036796;28;20045;-41
2023/02/27 19:05:44;;;;;;;5.72;1.75;;;21.10;77.70;;;;;;5053175;28;20134;-40
2023/02/27 19:08:10;;;;;;;6.45;1.83;;;21.10;78.10;;;;;;5054542;28;20044;-40
2023/02/27 19:10:37;;;;;;;5.80;1.85;;;21.10;78.70;;;;;;5066470;28;20056;-40
2023/02/27 19:13:04;;;;;;;5.15;1.70;;;21.10;78.90;;;;;;5073254;28;20059;-41
2023/02/27 19:15:31;;;;;;;5.88;1.88;;;21.10;79.00;;;;;;5074356;28;20041;-40
2023/02/27 19:17:58;;;;;;;5.85;2.20;;;21.10;79.00;;;;;;5073711;28;20461;-41
2023/02/27 19:20:25;;;;;;;5.15;1.73;;;21.00;78.60;;;;;;5074796;28;20048;-39
2023/02/27 19:22:52;;;;;;;5.80;2.20;;;21.00;78.80;;;;;;5073820;28;20050;-40
2023/02/27 19:25:18;;;;;;;5.60;2.10;;;21.00;78.80;;;;;;5072900;28;20110;-40
2023/02/27 19:27:45;;;;;;;7.47;2.20;;;21.00;79.50;;;;;;5074334;28;20116;-40
2023/02/27 19:30:12;;;;;;;5.85;2.10;;;21.00;79.50;;;;;;5074286;28;20051;-40
2023/02/27 19:32:38;;;;;;;4.85;2.13;;;21.00;79.70;;;;;;5072926;28;20154;-42
2023/02/27 19:35:05;;;;;;;6.10;2.53;;;21.00;79.90;;;;;;5073747;28;20113;-43
2023/02/27 19:37:32;;;;;;;6.25;2.67;;;21.00;79.80;;;;;;5073091;28;20041;-43
2023/02/27 19:39:58;;;;;;;6.80;2.63;;;21.00;79.80;;;;;;5074182;28;20044;-40
2023/02/27 19:42:25;;;;;;;6.43;2.70;;;21.00;79.70;;;;;;5074058;28;20470;-40
2023/02/27 19:44:52;;;;;;;6.35;2.63;;;21.00;79.60;;;;;;5073145;28;20041;-40
2023/02/27 19:47:18;;;;;;;6.25;2.60;;;21.00;79.70;;;;;;5073497;28;20060;-40
2023/02/27 19:49:45;;;;;;;5.95;2.53;;;20.90;79.80;;;;;;5074508;28;20058;-40
2023/02/27 19:52:12;;;;;;;7.03;2.83;;;21.00;80.00;;;;;;5073495;28;20052;-40
2023/02/27 19:54:39;;;;;;;5.60;2.58;;;20.90;80.20;;;;;;5073915;28;20040;-41
2023/02/27 19:57:06;;;;;;;6.65;2.72;;;21.00;80.40;;;;;;5074024;28;20379;-40
2023/02/27 19:59:33;;;;;;;6.68;3.10;;;20.90;80.00;;;;;;5058701;28;20047;-40
2023/02/27 20:01:59;;;;;;;6.47;2.90;;;20.90;79.50;;;;;;5053615;28;20048;-40
2023/02/27 20:04:26;;;;;;;9.35;3.13;;;20.90;79.90;;;;;;5033547;28;20057;-39
2023/02/27 20:06:53;;;;;;;7.72;3.45;;;20.90;79.90;;;;;;5053879;28;20045;-40
2023/02/27 20:09:20;;;;;;;7.35;3.17;;;20.90;79.70;;;;;;5053530;28;20045;-42
2023/02/27 20:11:46;;;;;;;7.57;3.20;;;20.90;79.50;;;;;;5052601;28;20047;-41
2023/02/27 20:14:13;;;;;;;6.47;3.13;;;20.90;80.10;;;;;;5053201;28;20041;-40
